Time;durP1;ratioP1;P1;durP2;ratioP2;P2;SDS_P1;SDS_P2;PMS_P1;PMS_P2;Temp;Humidity;BMP_temperature;BMP_pressure;BME280_temperature;BME280_humidity;BME280_pressure;Samples;Min_cycle;Max_cycle;Signal;HPM_P1;HPM_P2
2023/02/25 00:01:19;;;;;;;11.07;6.53;;;;;;;17.23;45.71;98535.69;5074288;28;20055;-65
2023/02/25 00:03:48;;;;;;;8.88;6.15;;;;;;;17.16;45.62;98536.38;5073283;28;20052;-65
2023/02/25 00:06:16;;;;;;;10.10;6.57;;;;;;;17.17;45.64;98531.81;5074339;28;20482;-65
2023/02/25 00:08:46;;;;;;;11.52;6.82;;;;;;;17.14;45.71;98535.72;5074204;28;20544;-65
2023/02/25 00:11:15;;;;;;;11.10;6.80;;;;;;;17.12;45.70;98535.06;5074236;28;20077;-65
2023/02/25 00:13:45;;;;;;;9.65;6.15;;;;;;;17.10;45.76;98536.25;5074132;28;20102;-64
2023/02/25 00:16:14;;;;;;;10.80;7.05;;;;;;;17.08;45.78;98536.44;5074287;28;20040;-64
2023/02/25 00:18:45;;;;;;;10.10;6.30;;;;;;;17.04;45.84;98532.41;5072862;28;20083;-65
2023/02/25 00:21:15;;;;;;;10.80;6.65;;;;;;;17.04;45.74;98531.56;5073973;28;20044;-64
2023/02/25 00:23:45;;;;;;;11.32;6.22;;;;;;;17.01;45.74;98531.91;5074070;28;20049;-63
2023/02/25 00:26:14;;;;;;;11.30;6.63;;;;;;;17.00;45.76;98524.84;5073905;28;20048;-65
2023/02/25 00:28:48;;;;;;;9.32;6.30;;;;;;;16.94;45.87;98520.16;5074078;28;20067;-65
2023/02/25 00:31:18;;;;;;;12.25;6.90;;;;;;;16.95;45.80;98516.44;5074035;28;20106;-64
2023/02/25 00:33:47;;;;;;;10.25;6.80;;;;;;;16.93;45.91;98513.94;5074027;28;20093;-65
2023/02/25 00:36:19;;;;;;;13.45;6.80;;;;;;;16.92;45.94;98511.41;5073731;28;20459;-65
2023/02/25 00:38:48;;;;;;;11.25;6.63;;;;;;;16.89;46.02;98501.84;5073555;28;20048;-65
2023/02/25 00:41:18;;;;;;;10.52;6.30;;;;;;;16.86;45.86;98496.78;5073745;28;20521;-63
2023/02/25 00:43:51;;;;;;;10.98;6.60;;;;;;;16.86;45.99;98488.72;5073734;28;20049;-64
2023/02/25 00:46:20;;;;;;;10.05;6.68;;;;;;;16.83;46.14;98491.75;5073656;28;20062;-64
2023/02/25 00:48:49;;;;;;;9.50;6.40;;;;;;;16.80;46.06;98478.66;5073523;28;20048;-63
2023/02/25 00:51:20;;;;;;;9.55;6.28;;;;;;;16.78;46.12;98478.81;5073735;28;20404;-64
2023/02/25 00:53:49;;;;;;;9.57;6.45;;;;;;;16.77;46.21;98471.75;5073505;28;20044;-65
2023/02/25 00:56:18;;;;;;;10.65;6.85;;;;;;;16.74;46.17;98464.03;5073367;28;20068;-64
2023/02/25 00:58:50;;;;;;;10.48;6.30;;;;;;;16.72;46.37;98458.00;5073360;28;20060;-65
2023/02/25 01:01:20;;;;;;;10.68;6.63;;;;;;;16.71;46.10;98455.47;5073367;28;20128;-65
2023/02/25 01:03:51;;;;;;;9.50;6.28;;;;;;;16.69;46.28;98444.84;5073205;28;20040;-64
2023/02/25 01:06:20;;;;;;;9.93;6.57;;;;;;;16.67;46.20;98444.16;5073243;28;20512;-65
2023/02/25 01:08:49;;;;;;;11.70;6.80;;;;;;;16.66;46.26;98436.28;5073315;28;20080;-64
2023/02/25 01:11:20;;;;;;;10.60;6.40;;;;;;;16.62;46.20;98424.19;5073145;28;20123;-65
2023/02/25 01:13:50;;;;;;;11.45;6.88;;;;;;;16.62;46.23;98425.03;5073134;28;20051;-64
2023/02/25 01:16:20;;;;;;;10.05;7.13;;;;;;;16.59;46.22;98420.81;5073038;28;20070;-64
2023/02/25 01:18:52;;;;;;;11.23;7.13;;;;;;;16.57;46.25;98417.47;5072903;28;20123;-65
2023/02/25 01:21:24;;;;;;;10.75;6.97;;;;;;;16.51;46.32;98410.09;5072790;28;20053;-64
2023/02/25 01:23:57;;;;;;;10.73;6.90;;;;;;;16.52;46.35;98405.56;5073013;28;20135;-64
2023/02/25 01:26:26;;;;;;;9.15;6.30;;;;;;;16.50;46.29;98402.19;5072840;28;20281;-64
2023/02/25 01:28:56;;;;;;;10.65;6.60;;;;;;;16.48;46.50;98386.22;5072640;28;20041;-65
2023/02/25 01:31:27;;;;;;;9.30;6.05;;;;;;;16.46;46.34;98382.84;5072683;28;20050;-65
2023/02/25 01:33:58;;;;;;;9.97;6.00;;;;;;;16.44;46.34;98384.91;5072773;28;20059;-65
2023/02/25 01:36:27;;;;;;;10.35;6.50;;;;;;;16.42;46.52;98383.41;5072437;28;20536;-65
2023/02/25 01:38:55;;;;;;;11.18;6.63;;;;;;;16.40;46.46;98380.84;5072343;28;20126;-65
2023/02/25 01:41:24;;;;;;;11.40;6.70;;;;;;;16.40;46.48;98388.09;5072333;28;20083;-64
2023/02/25 01:44:09;;;;;;;9.93;6.38;;;;;;;16.38;46.50;98384.75;5072634;28;20049;-65
2023/02/25 01:46:39;;;;;;;10.23;6.30;;;;;;;16.34;46.63;98378.88;5071935;28;20044;-64
2023/02/25 01:49:13;;;;;;;10.75;6.63;;;;;;;16.33;46.50;98377.22;5072464;28;20399;-64
2023/02/25 01:51:42;;;;;;;10.65;6.68;;;;;;;16.33;46.49;98373.69;5072241;28;20044;-64
2023/02/25 01:54:11;;;;;;;10.55;6.72;;;;;;;16.31;46.57;98368.47;5072322;28;20044;-64
2023/02/25 01:56:42;;;;;;;11.27;7.35;;;;;;;16.27;46.58;98364.44;5072434;28;20394;-63
2023/02/25 01:59:12;;;;;;;9.38;6.43;;;;;;;16.26;46.60;98360.91;5072342;28;20122;-65
2023/02/25 02:01:44;;;;;;;8.75;5.97;;;;;;;16.24;46.63;98362.09;5072145;28;20473;-64
2023/02/25 02:04:15;;;;;;;12.02;6.78;;;;;;;16.22;46.55;98356.91;5072176;28;20413;-64
2023/02/25 02:06:45;;;;;;;10.15;6.55;;;;;;;16.19;46.70;98353.72;5072059;28;20436;-63
2023/02/25 02:09:17;;;;;;;9.90;6.32;;;;;;;16.19;46.60;98348.31;5072086;28;20052;-65
2023/02/25 02:11:45;;;;;;;10.75;6.28;;;;;;;16.17;46.64;98344.97;5072111;28;20147;-64
2023/02/25 02:14:19;;;;;;;10.18;6.63;;;;;;;16.14;46.58;98346.19;5071964;28;20051;-64
2023/02/25 02:17:18;;;;;;;10.95;6.07;;;;;;;16.12;46.71;98342.00;5071960;28;20044;-64
2023/02/25 02:20:08;;;;;;;11.68;6.47;;;;;;;16.11;46.68;98334.91;5067757;28;20059;-63
2023/02/25 02:22:46;;;;;;;9.18;6.53;;;;;;;16.09;46.60;98339.63;5071865;28;20405;-64
2023/02/25 02:25:37;;;;;;;10.77;6.57;;;;;;;16.06;46.75;98329.22;5071982;28;20048;-64
2023/02/25 02:28:32;;;;;;;9.57;5.95;;;;;;;16.01;46.72;98302.84;5071941;28;20505;-64
2023/02/25 02:31:33;;;;;;;9.30;6.03;;;;;;;16.01;46.77;98306.38;5072015;28;20067;-64
2023/02/25 02:34:16;;;;;;;11.25;6.70;;;;;;;15.97;46.77;98296.97;5038867;28;20390;-64
2023/02/25 02:36:55;;;;;;;9.77;6.55;;;;;;;15.96;46.98;98292.63;5071661;28;20102;-69
2023/02/25 02:39:32;;;;;;;8.85;6.30;;;;;;;15.95;46.92;98299.00;5072572;28;20047;-63
2023/02/25 02:42:10;;;;;;;9.40;6.70;;;;;;;15.91;46.80;98294.13;5072583;28;20110;-63
2023/02/25 02:44:45;;;;;;;9.52;5.97;;;;;;;15.92;46.97;98304.75;5072035;28;20048;-64
2023/02/25 02:47:18;;;;;;;10.43;6.57;;;;;;;15.88;46.97;98295.34;5072118;28;20048;-64
2023/02/25 02:49:51;;;;;;;9.68;6.10;;;;;;;15.89;46.97;98315.81;5071728;28;20532;-64
2023/02/25 02:52:23;;;;;;;9.32;6.57;;;;;;;15.85;47.08;98302.91;5071593;28;20052;-64
2023/02/25 02:54:57;;;;;;;9.70;6.32;;;;;;;15.85;47.09;98298.38;5071620;28;20052;-64
2023/02/25 02:57:27;;;;;;;11.15;6.60;;;;;;;15.84;47.07;98306.63;5071645;28;20124;-63
2023/02/25 03:00:01;;;;;;;10.90;6.40;;;;;;;15.83;47.07;98310.31;5074336;28;20045;-65
2023/02/25 03:02:35;;;;;;;9.00;5.97;;;;;;;15.82;47.09;98305.94;5075717;28;20079;-63
2023/02/25 03:05:08;;;;;;;10.25;6.53;;;;;;;15.81;47.25;98306.94;5075497;28;20054;-64
2023/02/25 03:07:38;;;;;;;;;;;;;;;15.79;47.07;98308.97;5076271;28;20044;-63
2023/02/25 03:10:09;;;;;;;9.75;5.70;;;;;;;15.76;47.14;98318.22;5075600;28;19927;-63
2023/02/25 03:12:38;;;;;;;10.07;6.47;;;;;;;15.75;47.20;98324.63;5075610;28;20098;-63
2023/02/25 03:15:07;;;;;;;9.77;6.40;;;;;;;15.75;47.23;98338.06;5064831;28;20243;-64
2023/02/25 03:17:44;;;;;;;10.07;6.07;;;;;;;15.73;47.26;98337.41;5075046;28;20045;-64
2023/02/25 03:20:18;;;;;;;11.27;5.97;;;;;;;15.73;47.22;98337.41;5061592;28;20049;-64
2023/02/25 03:22:49;;;;;;;11.30;5.93;;;;;;;15.68;47.30;98326.31;5055142;28;20117;-64
2023/02/25 03:25:21;;;;;;;10.30;6.03;;;;;;;15.69;47.31;98330.66;5060104;28;20497;-62
2023/02/25 03:27:52;;;;;;;9.47;5.90;;;;;;;15.68;47.34;98326.31;5075039;28;20046;-63
2023/02/25 03:30:27;;;;;;;10.50;5.70;;;;;;;15.66;47.34;98331.03;5074902;28;20778;-63
2023/02/25 03:32:59;;;;;;;10.73;6.22;;;;;;;15.66;47.35;98331.03;5074952;28;20067;-64
2023/02/25 03:35:30;;;;;;;9.02;5.95;;;;;;;15.64;47.33;98333.03;5074821;28;20051;-63
2023/02/25 03:38:02;;;;;;;10.77;5.85;;;;;;;15.63;47.46;98328.66;5065837;28;20053;-64
2023/02/25 03:40:32;;;;;;;9.10;5.60;;;;;;;15.62;47.54;98327.81;5054684;28;20055;-64
2023/02/25 03:43:06;;;;;;;11.27;6.53;;;;;;;15.61;47.45;98328.00;5054655;28;20379;-65
2023/02/25 03:45:38;;;;;;;10.98;6.18;;;;;;;15.62;47.54;98335.03;5054713;28;20083;-64
2023/02/25 03:48:10;;;;;;;8.82;5.93;;;;;;;15.59;47.43;98330.81;5054656;28;20049;-64
2023/02/25 03:50:43;;;;;;;8.75;5.90;;;;;;;15.59;47.39;98329.97;5054624;28;20056;-65
2023/02/25 03:53:11;;;;;;;9.27;5.47;;;;;;;15.57;47.53;98332.84;5059367;28;20068;-64
2023/02/25 03:55:40;;;;;;;10.38;5.95;;;;;;;15.57;47.48;98326.63;5074624;28;20444;-63
2023/02/25 03:58:09;;;;;;;9.90;5.85;;;;;;;15.52;47.50;98323.59;5074602;28;20052;-64
2023/02/25 04:00:41;;;;;;;9.63;5.70;;;;;;;15.55;47.44;98334.03;5074564;28;20048;-64
2023/02/25 04:03:11;;;;;;;9.65;6.03;;;;;;;15.55;47.52;98334.88;5074405;28;20067;-65
2023/02/25 04:05:39;;;;;;;8.30;5.30;;;;;;;15.53;47.52;98327.97;5074394;28;20051;-64
2023/02/25 04:08:14;;;;;;;9.38;5.30;;;;;;;15.49;47.52;98326.66;5074372;28;20398;-64
2023/02/25 04:10:43;;;;;;;9.32;5.60;;;;;;;15.53;47.57;98322.59;5074156;28;20128;-63
2023/02/25 04:13:12;;;;;;;8.27;5.32;;;;;;;15.51;47.65;98321.94;5073171;28;20044;-64
2023/02/25 04:15:41;;;;;;;8.75;5.10;;;;;;;15.50;47.57;98320.25;5074238;28;20057;-65
2023/02/25 04:18:12;;;;;;;9.90;5.28;;;;;;;15.51;47.76;98330.00;5074111;28;20055;-64
2023/02/25 04:20:40;;;;;;;8.52;5.18;;;;;;;15.50;47.65;98336.38;5074381;28;20049;-63
2023/02/25 04:23:13;;;;;;;8.88;5.28;;;;;;;15.48;47.78;98335.72;5074024;28;20076;-63
2023/02/25 04:25:42;;;;;;;8.73;5.20;;;;;;;15.48;47.67;98335.72;5074202;28;20055;-65
2023/02/25 04:28:10;;;;;;;8.13;5.00;;;;;;;15.49;47.71;98338.22;5074024;28;20041;-64
2023/02/25 04:30:39;;;;;;;8.18;5.07;;;;;;;15.49;47.73;98332.03;5073893;28;20079;-65
2023/02/25 04:33:07;;;;;;;8.80;5.38;;;;;;;15.49;47.75;98334.69;5074031;28;20053;-63
2023/02/25 04:35:37;;;;;;;11.15;5.45;;;;;;;15.48;47.84;98343.78;5073780;28;20048;-63
2023/02/25 04:38:05;;;;;;;8.07;5.18;;;;;;;15.49;47.79;98340.06;5073692;28;20568;-64
2023/02/25 04:40:37;;;;;;;7.93;4.57;;;;;;;15.51;47.80;98352.31;5073758;28;20043;-63
2023/02/25 04:43:05;;;;;;;7.45;5.05;;;;;;;15.56;47.87;98357.22;5073595;28;20106;-63
2023/02/25 04:45:33;;;;;;;8.60;4.63;;;;;;;15.63;48.07;98358.22;5073634;28;20181;-65
2023/02/25 04:48:01;;;;;;;8.73;5.07;;;;;;;15.71;48.09;98371.66;5073735;28;20041;-64
2023/02/25 04:50:29;;;;;;;7.05;4.50;;;;;;;15.83;48.02;98367.63;5073687;28;20041;-65
2023/02/25 04:53:02;;;;;;;7.43;4.45;;;;;;;15.95;47.95;98385.06;5073453;28;20044;-64
2023/02/25 04:55:30;;;;;;;6.33;4.10;;;;;;;16.06;47.91;98374.94;5073455;28;20162;-64
2023/02/25 04:57:58;;;;;;;6.15;4.05;;;;;;;16.18;47.83;98373.56;5073358;28;20372;-64
2023/02/25 05:00:27;;;;;;;7.45;4.25;;;;;;;16.28;47.78;98379.56;5073472;28;20056;-64
2023/02/25 05:02:56;;;;;;;8.15;4.18;;;;;;;16.37;47.72;98378.53;5073339;28;20468;-64
2023/02/25 05:05:25;;;;;;;6.35;3.90;;;;;;;16.49;47.45;98385.19;5073259;28;20113;-64
2023/02/25 05:07:53;;;;;;;7.70;4.13;;;;;;;16.60;47.28;98389.38;5073140;28;20049;-64
2023/02/25 05:10:23;;;;;;;6.10;3.90;;;;;;;16.66;47.46;98393.19;5073010;28;20090;-64
2023/02/25 05:12:51;;;;;;;7.00;4.20;;;;;;;16.67;47.31;98384.09;5073015;28;20478;-64
2023/02/25 05:15:20;;;;;;;7.60;3.85;;;;;;;16.71;47.25;98390.88;5073119;28;20071;-65
2023/02/25 05:17:48;;;;;;;7.25;3.90;;;;;;;16.75;47.37;98397.56;5072971;28;20041;-63
2023/02/25 05:20:17;;;;;;;7.70;3.72;;;;;;;16.75;47.38;98403.78;5073027;28;20176;-63
2023/02/25 05:22:45;;;;;;;6.65;3.80;;;;;;;16.77;47.34;98406.28;5071953;28;20056;-65
2023/02/25 05:25:14;;;;;;;8.18;4.07;;;;;;;16.76;47.30;98432.38;5072746;28;20055;-64
2023/02/25 05:27:44;;;;;;;6.22;3.45;;;;;;;16.75;47.30;98429.88;5072795;28;20045;-64
2023/02/25 05:30:14;;;;;;;6.75;3.75;;;;;;;16.75;47.41;98435.25;5072981;28;20045;-65
2023/02/25 05:32:43;;;;;;;5.45;3.55;;;;;;;16.75;47.29;98456.78;5072843;28;20044;-64
2023/02/25 05:35:11;;;;;;;6.22;3.70;;;;;;;16.71;47.47;98450.09;5073156;28;20055;-63
2023/02/25 05:37:39;;;;;;;5.65;3.58;;;;;;;16.72;47.33;98454.47;5072426;28;20102;-64
2023/02/25 05:40:12;;;;;;;5.50;3.60;;;;;;;16.69;47.54;98457.47;5072545;28;20048;-64
2023/02/25 05:42:41;;;;;;;5.28;3.33;;;;;;;16.68;47.40;98453.06;5072530;28;20456;-64
2023/02/25 05:45:16;;;;;;;5.20;3.40;;;;;;;16.66;47.52;98447.03;5072449;28;20416;-64
2023/02/25 05:47:44;;;;;;;4.93;3.10;;;;;;;16.65;47.41;98439.97;5072508;28;20531;-63
2023/02/25 05:50:13;;;;;;;5.70;3.38;;;;;;;16.62;47.53;98437.66;5072362;28;20048;-63
2023/02/25 05:52:43;;;;;;;4.57;2.85;;;;;;;16.61;47.52;98442.19;5072723;28;20048;-64
2023/02/25 05:55:12;;;;;;;5.35;3.10;;;;;;;16.58;47.42;98446.03;5072352;28;20049;-64
2023/02/25 05:57:40;;;;;;;5.05;3.10;;;;;;;16.56;47.58;98448.06;5072473;28;20059;-64
2023/02/25 06:00:13;;;;;;;5.47;3.25;;;;;;;16.53;47.59;98451.13;5072208;28;20493;-63
2023/02/25 06:02:44;;;;;;;5.25;3.00;;;;;;;16.53;47.42;98459.19;5072152;28;20044;-64
2023/02/25 06:05:12;;;;;;;5.35;3.20;;;;;;;16.51;47.49;98455.00;5072136;28;20444;-64
2023/02/25 06:07:40;;;;;;;4.60;2.72;;;;;;;16.49;47.48;98451.63;5072301;28;20044;-64
2023/02/25 06:10:10;;;;;;;4.97;2.97;;;;;;;16.47;47.53;98473.34;5071993;28;20053;-65
2023/02/25 06:12:38;;;;;;;5.65;3.00;;;;;;;16.45;47.59;98472.69;5072143;28;20127;-64
2023/02/25 06:15:08;;;;;;;6.30;2.95;;;;;;;16.44;47.42;98497.06;5072158;28;20122;-65
2023/02/25 06:17:36;;;;;;;4.60;2.55;;;;;;;16.43;47.52;98498.94;5072105;28;20063;-64
2023/02/25 06:20:07;;;;;;;5.45;2.60;;;;;;;16.38;47.46;98505.81;5072051;28;20474;-64
2023/02/25 06:22:36;;;;;;;6.50;2.92;;;;;;;16.38;47.46;98503.97;5072144;28;20078;-64
2023/02/25 06:25:05;;;;;;;4.13;2.35;;;;;;;16.36;47.48;98503.31;5071901;28;20489;-64
2023/02/25 06:27:33;;;;;;;4.97;2.72;;;;;;;16.35;47.54;98507.00;5071891;28;20051;-64
2023/02/25 06:30:02;;;;;;;6.15;2.75;;;;;;;16.32;47.58;98515.44;5072044;28;20045;-64
2023/02/25 06:32:30;;;;;;;3.92;2.50;;;;;;;16.31;47.61;98508.38;5071924;28;20044;-65
2023/02/25 06:34:59;;;;;;;4.72;2.70;;;;;;;16.29;47.61;98513.91;5072061;28;20044;-64
2023/02/25 06:37:28;;;;;;;4.50;2.50;;;;;;;16.27;47.75;98512.41;5071702;28;20090;-64
2023/02/25 06:39:56;;;;;;;4.28;2.50;;;;;;;16.25;47.65;98509.88;5072101;28;20045;-65
2023/02/25 06:42:25;;;;;;;3.72;2.22;;;;;;;16.25;47.69;98517.13;5072062;28;20048;-64
2023/02/25 06:44:53;;;;;;;3.95;2.17;;;;;;;16.23;47.63;98528.06;5072054;28;20082;-66
2023/02/25 06:47:22;;;;;;;4.95;2.42;;;;;;;16.19;47.63;98529.38;5072447;28;20040;-64
2023/02/25 06:49:50;;;;;;;3.53;2.05;;;;;;;16.18;47.75;98535.78;5072201;28;20052;-65
2023/02/25 06:52:18;;;;;;;3.92;2.35;;;;;;;16.18;47.60;98543.00;5072183;28;20041;-65
2023/02/25 06:54:48;;;;;;;3.55;2.03;;;;;;;16.16;47.68;98547.72;5072108;28;20071;-64
2023/02/25 06:57:16;;;;;;;3.08;1.98;;;;;;;16.14;47.78;98565.88;5072113;28;20521;-65
2023/02/25 06:59:45;;;;;;;3.30;2.13;;;;;;;16.11;47.67;98561.66;5072178;28;20162;-65
2023/02/25 07:02:13;;;;;;;3.90;1.92;;;;;;;16.09;47.82;98569.06;5072381;28;20432;-65
2023/02/25 07:04:42;;;;;;;3.88;1.98;;;;;;;16.07;47.83;98564.88;5071767;28;20127;-64
2023/02/25 07:07:11;;;;;;;3.15;1.90;;;;;;;16.07;47.74;98576.47;5071528;28;20048;-64
2023/02/25 07:09:39;;;;;;;5.35;2.13;;;;;;;16.06;47.82;98579.34;5071369;28;20123;-63
2023/02/25 07:12:09;;;;;;;4.50;1.98;;;;;;;16.03;47.82;98580.50;5071478;28;20448;-64
2023/02/25 07:14:37;;;;;;;3.55;2.00;;;;;;;15.99;47.66;98574.63;5071328;28;20087;-65
2023/02/25 07:17:05;;;;;;;3.05;1.90;;;;;;;15.96;47.82;98585.72;5071573;28;20047;-63
2023/02/25 07:19:34;;;;;;;3.20;2.00;;;;;;;15.97;47.85;98576.63;5071526;28;20090;-63
2023/02/25 07:22:02;;;;;;;2.78;1.80;;;;;;;15.97;47.90;98586.56;5071546;28;20401;-64
2023/02/25 07:24:30;;;;;;;3.20;1.77;;;;;;;15.95;47.82;98584.03;5071355;28;20083;-64
2023/02/25 07:26:58;;;;;;;3.30;1.85;;;;;;;15.87;47.93;98565.19;5071254;28;20482;-64
2023/02/25 07:29:28;;;;;;;3.13;1.80;;;;;;;15.92;47.91;98579.00;5071655;28;20052;-65
2023/02/25 07:31:56;;;;;;;2.88;1.80;;;;;;;15.91;47.82;98585.34;5071357;28;20102;-65
2023/02/25 07:34:25;;;;;;;2.92;1.73;;;;;;;15.90;47.89;98586.38;5071359;28;20055;-64
2023/02/25 07:36:53;;;;;;;3.15;1.80;;;;;;;15.86;47.91;98579.66;5070881;28;20079;-63
2023/02/25 07:39:22;;;;;;;2.97;1.70;;;;;;;15.86;47.90;98579.66;5071109;28;20477;-64
2023/02/25 07:41:50;;;;;;;3.90;1.70;;;;;;;15.81;47.88;98576.59;5071054;28;20568;-63
2023/02/25 07:44:18;;;;;;;3.03;1.70;;;;;;;15.85;47.96;98583.34;5071087;28;20048;-64
2023/02/25 07:46:48;;;;;;;3.38;1.60;;;;;;;15.83;47.94;98587.22;5074726;28;20455;-64
2023/02/25 07:49:16;;;;;;;3.03;1.50;;;;;;;15.82;47.86;98578.28;5074479;28;20492;-64
2023/02/25 07:51:44;;;;;;;2.65;1.52;;;;;;;15.79;47.86;98573.25;5074590;28;20471;-64
2023/02/25 07:54:14;;;;;;;2.47;1.38;;;;;;;15.79;47.79;98583.16;5074787;28;20044;-64
2023/02/25 07:56:42;;;;;;;3.20;1.50;;;;;;;15.74;47.82;98570.22;5074674;28;20048;-64
2023/02/25 07:59:10;;;;;;;3.22;1.67;;;;;;;15.77;47.80;98595.94;5074668;28;20049;-64
2023/02/25 08:01:39;;;;;;;2.97;1.50;;;;;;;15.74;47.74;98605.19;5072778;28;20068;-64
2023/02/25 08:04:09;;;;;;;1.90;1.20;;;;;;;15.72;47.84;98599.09;5074365;28;20564;-64
2023/02/25 08:06:39;;;;;;;2.50;1.40;;;;;;;15.72;47.94;98604.47;5074198;28;20040;-64
2023/02/25 08:09:09;;;;;;;1.75;1.38;;;;;;;15.69;47.83;98596.75;5074329;28;20075;-64
2023/02/25 08:11:39;;;;;;;2.05;1.33;;;;;;;15.67;47.82;98594.25;5074328;28;20052;-64
2023/02/25 08:14:07;;;;;;;2.58;1.42;;;;;;;15.67;47.75;98598.78;5074112;28;20504;-63
2023/02/25 08:16:36;;;;;;;2.20;1.20;;;;;;;15.65;47.77;98603.47;5074128;28;20044;-64
2023/02/25 08:19:06;;;;;;;2.40;1.45;;;;;;;15.63;47.82;98600.09;5074372;28;20091;-64
2023/02/25 08:21:36;;;;;;;3.50;1.50;;;;;;;15.63;47.59;98594.72;5074068;28;20465;-64
2023/02/25 08:24:05;;;;;;;2.30;1.33;;;;;;;15.60;47.71;98584.28;5074153;28;20049;-62
2023/02/25 08:26:34;;;;;;;1.42;1.13;;;;;;;15.60;47.73;98589.66;5074281;28;20432;-63
2023/02/25 08:29:02;;;;;;;2.33;1.30;;;;;;;15.58;47.69;98591.66;5073932;28;20040;-65
2023/02/25 08:31:30;;;;;;;1.95;1.13;;;;;;;15.52;47.72;98582.41;5073998;28;20097;-65
2023/02/25 08:33:59;;;;;;;3.20;1.40;;;;;;;15.53;47.78;98610.94;5074250;28;20051;-65
2023/02/25 08:36:30;;;;;;;2.72;1.40;;;;;;;15.53;47.64;98610.09;5074047;28;20119;-65
2023/02/25 08:38:59;;;;;;;2.15;1.30;;;;;;;15.52;47.80;98617.34;5073755;28;20133;-65
2023/02/25 08:41:29;;;;;;;2.15;1.10;;;;;;;15.50;47.78;98621.19;5071560;28;20091;-64
2023/02/25 08:44:00;;;;;;;2.35;1.40;;;;;;;15.44;47.74;98595.81;5062682;28;20079;-64
2023/02/25 08:46:33;;;;;;;1.70;1.10;;;;;;;15.48;47.79;98612.47;5072162;28;20486;-64
2023/02/25 08:49:02;;;;;;;2.40;1.30;;;;;;;15.47;47.81;98625.06;5072704;28;20044;-65
2023/02/25 08:51:33;;;;;;;1.52;0.98;;;;;;;15.48;47.89;98639.31;5073483;28;20053;-65
2023/02/25 08:54:06;;;;;;;1.70;1.02;;;;;;;15.44;47.84;98642.34;5073291;28;20048;-66
2023/02/25 08:56:35;;;;;;;1.70;0.90;;;;;;;15.44;47.92;98620.84;5073294;28;20054;-66
2023/02/25 08:59:03;;;;;;;2.25;1.10;;;;;;;15.44;47.90;98634.28;5073486;28;20045;-64
2023/02/25 09:01:43;;;;;;;1.77;1.10;;;;;;;15.43;48.05;98637.94;5073286;28;20048;-65
2023/02/25 09:04:12;;;;;;;1.17;0.90;;;;;;;15.39;48.03;98641.13;5073163;28;20098;-65
2023/02/25 09:06:41;;;;;;;1.40;1.10;;;;;;;15.40;48.01;98638.28;5073082;28;20045;-65
2023/02/25 09:09:12;;;;;;;1.73;1.20;;;;;;;15.40;48.01;98646.34;5073172;28;20048;-63
2023/02/25 09:11:40;;;;;;;1.30;0.95;;;;;;;15.39;48.09;98636.59;5073117;28;20090;-64
2023/02/25 09:14:10;;;;;;;1.98;1.08;;;;;;;15.39;47.90;98619.66;5072974;28;20110;-65
2023/02/25 09:16:38;;;;;;;1.92;1.10;;;;;;;15.37;47.95;98633.25;5073027;28;20053;-64
2023/02/25 09:19:07;;;;;;;1.55;0.95;;;;;;;15.38;47.93;98629.56;5072814;28;20102;-65
2023/02/25 09:21:36;;;;;;;1.77;0.95;;;;;;;15.38;47.96;98628.72;5072976;28;20464;-65
2023/02/25 09:24:05;;;;;;;1.90;1.13;;;;;;;15.37;48.04;98635.94;5072958;28;20114;-64
2023/02/25 09:26:34;;;;;;;1.77;1.10;;;;;;;15.36;47.84;98649.53;5072618;28;20072;-66
2023/02/25 09:29:05;;;;;;;2.50;1.30;;;;;;;15.37;48.10;98670.00;5072725;28;20049;-66
2023/02/25 09:31:35;;;;;;;1.10;0.80;;;;;;;15.35;47.89;98690.84;5072631;28;20056;-67
2023/02/25 09:34:08;;;;;;;1.60;1.00;;;;;;;15.34;48.06;98686.44;5072487;28;20052;-65
2023/02/25 09:36:37;;;;;;;2.33;1.02;;;;;;;15.35;47.98;98674.72;5072664;28;20102;-66
2023/02/25 09:39:08;;;;;;;2.17;1.00;;;;;;;15.32;47.95;98666.97;5072638;28;20048;-64
2023/02/25 09:41:46;;;;;;;0.95;0.88;;;;;;;15.31;48.16;98650.00;5072438;28;20044;-66
2023/02/25 09:44:18;;;;;;;1.40;0.82;;;;;;;15.31;47.98;98636.56;5072359;28;20509;-65
2023/02/25 09:46:51;;;;;;;2.30;0.95;;;;;;;15.31;48.02;98616.91;5072520;28;20066;-67
2023/02/25 09:49:21;;;;;;;;;;;;;;;15.30;48.09;98626.00;5072990;28;20051;-65
2023/02/25 09:51:56;;;;;;;2.03;1.00;;;;;;;15.29;48.01;98625.16;5072159;28;19927;-65
2023/02/25 09:54:30;;;;;;;2.60;1.20;;;;;;;15.29;48.03;98635.88;5072468;28;20402;-65
2023/02/25 09:57:03;;;;;;;1.67;0.88;;;;;;;15.29;48.13;98635.06;5071896;28;20045;-65
2023/02/25 09:59:32;;;;;;;2.30;1.27;;;;;;;15.28;48.02;98639.59;5072183;28;20058;-65
2023/02/25 10:02:13;;;;;;;2.50;1.20;;;;;;;15.29;47.99;98641.25;5072209;28;20044;-66
2023/02/25 10:04:51;;;;;;;1.73;1.00;;;;;;;15.26;47.98;98630.84;5072075;28;20049;-65
2023/02/25 10:07:24;;;;;;;2.35;1.20;;;;;;;15.29;48.19;98635.88;5069874;28;20052;-62
2023/02/25 10:09:58;;;;;;;1.77;0.90;;;;;;;15.28;48.02;98644.97;5074313;28;20056;-65
2023/02/25 10:12:35;;;;;;;1.20;0.80;;;;;;;15.31;48.07;98628.50;5071887;28;20041;-65
2023/02/25 10:15:33;;;;;;;1.65;0.90;;;;;;;15.37;47.79;98622.50;5071815;28;20047;-65
2023/02/25 10:18:13;;;;;;;1.70;0.90;;;;;;;15.39;47.78;98615.13;5071913;28;20052;-69
2023/02/25 10:20:56;;;;;;;1.80;1.10;;;;;;;15.41;47.79;98618.47;5071952;28;20044;-67
2023/02/25 10:23:43;;;;;;;1.15;0.95;;;;;;;15.40;48.01;98619.47;5071747;28;20094;-67
2023/02/25 10:26:23;;;;;;;1.48;0.82;;;;;;;15.39;47.72;98647.34;5071597;28;20044;-67
2023/02/25 10:28:59;;;;;;;2.75;0.98;;;;;;;15.36;47.59;98653.06;5071861;28;20048;-65
2023/02/25 10:31:30;;;;;;;2.03;1.00;;;;;;;15.33;47.48;98658.72;5071755;28;20040;-66
2023/02/25 10:34:19;;;;;;;1.30;0.90;;;;;;;15.36;47.33;98657.59;5071667;28;20549;-67
2023/02/25 10:36:53;;;;;;;1.15;0.80;;;;;;;15.36;47.29;98630.72;5071430;28;20394;-67
2023/02/25 10:39:22;;;;;;;1.30;0.70;;;;;;;15.35;47.37;98653.22;5071732;28;20051;-67
2023/02/25 10:41:50;;;;;;;1.25;0.90;;;;;;;15.35;47.50;98655.91;5071554;28;20045;-68
2023/02/25 10:44:20;;;;;;;1.90;0.90;;;;;;;15.32;47.40;98651.69;5071517;28;20105;-67
2023/02/25 10:46:54;;;;;;;1.88;0.90;;;;;;;15.36;47.28;98642.31;5070162;28;20143;-67
2023/02/25 10:49:25;;;;;;;1.05;0.70;;;;;;;15.39;47.41;98644.66;5070393;28;20040;-68
2023/02/25 10:52:02;;;;;;;1.33;0.88;;;;;;;15.43;47.47;98635.25;5071609;28;20052;-68
2023/02/25 10:54:32;;;;;;;1.70;0.70;;;;;;;15.45;47.48;98662.84;5071459;28;20505;-67
2023/02/25 10:57:01;;;;;;;1.80;1.00;;;;;;;15.47;47.33;98641.19;5071371;28;20098;-67
2023/02/25 10:59:36;;;;;;;1.20;0.95;;;;;;;15.52;47.26;98646.03;5071273;28;20048;-67
2023/02/25 11:02:17;;;;;;;1.60;0.88;;;;;;;15.57;47.17;98639.19;5071341;28;20044;-67
2023/02/25 11:04:46;;;;;;;1.60;0.93;;;;;;;15.61;46.79;98642.41;5071482;28;20055;-66
2023/02/25 11:07:34;;;;;;;1.40;0.90;;;;;;;15.66;46.74;98664.28;5071429;28;20048;-69
2023/02/25 11:10:14;;;;;;;1.63;1.00;;;;;;;15.69;46.57;98658.56;5071353;28;20466;-67
2023/02/25 11:12:44;;;;;;;0.82;0.70;;;;;;;15.71;46.52;98646.66;5071389;28;20052;-67
2023/02/25 11:15:29;;;;;;;1.38;0.80;;;;;;;15.76;46.39;98642.66;5071216;28;20501;-66
2023/02/25 11:18:19;;;;;;;2.00;0.70;;;;;;;15.79;46.26;98651.22;5071267;28;20053;-67
2023/02/25 11:20:50;;;;;;;1.52;0.80;;;;;;;15.84;46.16;98656.09;5073679;28;20506;-67
2023/02/25 11:23:22;;;;;;;0.77;0.60;;;;;;;15.88;46.14;98660.97;5075146;28;20178;-66
2023/02/25 11:25:52;;;;;;;1.37;0.80;;;;;;;15.91;46.25;98614.94;5075071;28;20041;-66
2023/02/25 11:28:29;;;;;;;0.65;0.50;;;;;;;15.96;45.84;98609.91;5074978;28;20044;-66
2023/02/25 11:31:12;;;;;;;0.88;0.60;;;;;;;16.02;45.85;98595.81;5074903;28;20052;-66
2023/02/25 11:33:45;;;;;;;0.95;0.50;;;;;;;16.05;45.81;98577.66;5074933;28;20577;-67
2023/02/25 11:36:22;;;;;;;0.63;0.60;;;;;;;16.10;45.94;98576.13;5074769;28;20093;-67
2023/02/25 11:39:05;;;;;;;4.55;0.75;;;;;;;16.13;45.64;98569.59;5074712;28;20049;-67
2023/02/25 11:41:34;;;;;;;0.60;0.60;;;;;;;16.18;45.63;98570.75;5074940;28;20044;-66
2023/02/25 11:44:19;;;;;;;0.98;0.60;;;;;;;16.24;45.43;98570.09;5074966;28;20397;-67
2023/02/25 11:46:56;;;;;;;1.38;0.70;;;;;;;16.27;45.65;98563.50;5074835;28;20052;-69
2023/02/25 11:49:47;;;;;;;2.67;0.80;;;;;;;16.33;45.69;98608.59;5074643;28;20139;-66
2023/02/25 11:52:25;;;;;;;0.90;0.52;;;;;;;16.37;45.70;98615.31;5074589;28;20109;-67